sensor_id;sensor_type;location;lat;lon;timestamp;pressure;altitude;pressure_sealevel;temperature;humidity
72226;BME280;60130;52.250;5.048;2023-07-29T00:00:00;1007.7;;;18.4;82.2
72226;BME280;60130;52.250;5.048;2023-07-29T00:05:00;1007.7;;;18.4;82.2
72226;BME280;60130;52.250;5.048;2023-07-29T00:10:00;1007.6;;;18.4;82.3
72226;BME280;60130;52.250;5.048;2023-07-29T00:15:00;1007.6;;;18.2;82.7
72226;BME280;60130;52.250;5.048;2023-07-29T00:20:00;1007.5;;;18.3;82.4
72226;BME280;60130;52.250;5.048;2023-07-29T00:25:00;1007.5;;;18.3;82.2
72226;BME280;60130;52.250;5.048;2023-07-29T00:30:00;1007.5;;;18.4;82.2
72226;BME280;60130;52.250;5.048;2023-07-29T00:35:00;1007.5;;;18.4;82.0
72226;BME280;60130;52.250;5.048;2023-07-29T00:40:00;1007.4;;;18.5;81.5
72226;BME280;60130;52.250;5.048;2023-07-29T00:45:00;1007.3;;;18.6;81.1
72226;BME280;60130;52.250;5.048;2023-07-29T00:50:00;1007.3;;;18.7;81.0
72226;BME280;60130;52.250;5.048;2023-07-29T00:55:00;1007.2;;;18.7;81.0
72226;BME280;60130;52.250;5.048;2023-07-29T01:00:00;1007.2;;;18.7;80.9
72226;BME280;60130;52.250;5.048;2023-07-29T01:05:00;1007.2;;;18.8;80.8
72226;BME280;60130;52.250;5.048;2023-07-29T01:10:02;1007.2;;;18.7;81.3
72226;BME280;60130;52.250;5.048;2023-07-29T01:15:06;1007.2;;;18.5;82.3
72226;BME280;60130;52.250;5.048;2023-07-29T01:20:02;1007.2;;;18.3;83.1
72226;BME280;60130;52.250;5.048;2023-07-29T01:25:00;1007.2;;;18.3;83.4
72226;BME280;60130;52.250;5.048;2023-07-29T01:30:01;1007.2;;;18.1;84.1
72226;BME280;60130;52.250;5.048;2023-07-29T01:35:03;1007.1;;;18.0;84.2
72226;BME280;60130;52.250;5.048;2023-07-29T01:40:00;1007.1;;;18.0;84.3
72226;BME280;60130;52.250;5.048;2023-07-29T01:45:00;1007.1;;;18.0;84.7
72226;BME280;60130;52.250;5.048;2023-07-29T01:50:00;1007.1;;;17.9;85.2
72226;BME280;60130;52.250;5.048;2023-07-29T01:55:00;1007.0;;;17.9;85.5
72226;BME280;60130;52.250;5.048;2023-07-29T02:00:00;1007.0;;;17.8;85.9
72226;BME280;60130;52.250;5.048;2023-07-29T02:05:00;1007.0;;;17.8;86.0
72226;BME280;60130;52.250;5.048;2023-07-29T02:10:00;1007.0;;;17.8;86.1
72226;BME280;60130;52.250;5.048;2023-07-29T02:15:00;1007.0;;;17.7;87.0
72226;BME280;60130;52.250;5.048;2023-07-29T02:20:00;1007.0;;;17.6;87.3
72226;BME280;60130;52.250;5.048;2023-07-29T02:25:00;1006.8;;;17.6;87.2
72226;BME280;60130;52.250;5.048;2023-07-29T02:30:00;1006.9;;;17.6;87.1
72226;BME280;60130;52.250;5.048;2023-07-29T02:35:00;1006.9;;;17.6;86.9
72226;BME280;60130;52.250;5.048;2023-07-29T02:40:00;1006.8;;;17.6;86.9
72226;BME280;60130;52.250;5.048;2023-07-29T02:45:00;1006.8;;;17.5;86.9
72226;BME280;60130;52.250;5.048;2023-07-29T02:50:00;1006.9;;;17.4;86.8
72226;BME280;60130;52.250;5.048;2023-07-29T02:55:00;1006.8;;;17.5;86.6
72226;BME280;60130;52.250;5.048;2023-07-29T03:00:00;1006.8;;;17.5;86.4
72226;BME280;60130;52.250;5.048;2023-07-29T03:05:00;1006.7;;;17.4;86.4
72226;BME280;60130;52.250;5.048;2023-07-29T03:10:00;1006.6;;;17.5;86.1
72226;BME280;60130;52.250;5.048;2023-07-29T03:15:00;1006.6;;;17.5;86.0
72226;BME280;60130;52.250;5.048;2023-07-29T03:20:00;1006.6;;;17.6;85.5
72226;BME280;60130;52.250;5.048;2023-07-29T03:25:00;1006.5;;;17.6;85.5
72226;BME280;60130;52.250;5.048;2023-07-29T03:30:00;1006.5;;;17.6;85.5
72226;BME280;60130;52.250;5.048;2023-07-29T03:35:00;1006.6;;;17.6;85.9
72226;BME280;60130;52.250;5.048;2023-07-29T03:40:00;1006.5;;;17.6;85.6
72226;BME280;60130;52.250;5.048;2023-07-29T03:45:00;1006.6;;;17.5;85.7
72226;BME280;60130;52.250;5.048;2023-07-29T03:50:00;1006.7;;;17.5;85.9
72226;BME280;60130;52.250;5.048;2023-07-29T03:55:00;1006.8;;;17.4;85.9
72226;BME280;60130;52.250;5.048;2023-07-29T04:00:00;1006.8;;;17.4;85.7
72226;BME280;60130;52.250;5.048;2023-07-29T04:05:00;1006.8;;;17.5;85.6
72226;BME280;60130;52.250;5.048;2023-07-29T04:10:00;1006.6;;;17.5;85.2
72226;BME280;60130;52.250;5.048;2023-07-29T04:15:00;1006.7;;;17.4;84.7
72226;BME280;60130;52.250;5.048;2023-07-29T04:20:00;1006.8;;;17.4;84.8
72226;BME280;60130;52.250;5.048;2023-07-29T04:25:00;1006.8;;;17.4;84.7
72226;BME280;60130;52.250;5.048;2023-07-29T04:30:00;1006.7;;;17.3;85.0
72226;BME280;60130;52.250;5.048;2023-07-29T04:35:00;1006.8;;;17.4;84.6
72226;BME280;60130;52.250;5.048;2023-07-29T04:40:00;1006.7;;;17.4;84.6
72226;BME280;60130;52.250;5.048;2023-07-29T04:45:00;1006.8;;;17.3;84.8
72226;BME280;60130;52.250;5.048;2023-07-29T04:50:00;1006.7;;;17.3;85.0
72226;BME280;60130;52.250;5.048;2023-07-29T04:55:00;1006.7;;;17.4;85.0
72226;BME280;60130;52.250;5.048;2023-07-29T05:00:00;1006.8;;;17.5;85.0
72226;BME280;60130;52.250;5.048;2023-07-29T05:05:00;1006.9;;;17.5;85.1
72226;BME280;60130;52.250;5.048;2023-07-29T05:10:00;1006.8;;;17.6;84.9
72226;BME280;60130;52.250;5.048;2023-07-29T05:15:00;1006.8;;;17.7;84.7
72226;BME280;60130;52.250;5.048;2023-07-29T05:20:00;1006.8;;;17.8;84.2
72226;BME280;60130;52.250;5.048;2023-07-29T05:25:00;1006.8;;;18.0;84.1
72226;BME280;60130;52.250;5.048;2023-07-29T05:30:00;1006.8;;;18.1;83.9
72226;BME280;60130;52.250;5.048;2023-07-29T05:35:00;1006.8;;;18.3;83.7
72226;BME280;60130;52.250;5.048;2023-07-29T05:40:00;1006.9;;;18.2;83.5
72226;BME280;60130;52.250;5.048;2023-07-29T05:45:00;1006.8;;;18.2;84.0
72226;BME280;60130;52.250;5.048;2023-07-29T05:50:00;1006.8;;;18.2;83.5
72226;BME280;60130;52.250;5.048;2023-07-29T05:55:00;1006.9;;;18.6;82.7
72226;BME280;60130;52.250;5.048;2023-07-29T06:00:00;1006.8;;;19.0;82.0
72226;BME280;60130;52.250;5.048;2023-07-29T06:05:00;1006.8;;;19.4;81.2
72226;BME280;60130;52.250;5.048;2023-07-29T06:10:00;1006.8;;;19.4;80.0
72226;BME280;60130;52.250;5.048;2023-07-29T06:15:00;1006.9;;;19.3;80.8
72226;BME280;60130;52.250;5.048;2023-07-29T06:20:00;1006.9;;;19.1;81.3
72226;BME280;60130;52.250;5.048;2023-07-29T06:25:00;1006.9;;;19.1;81.6
72226;BME280;60130;52.250;5.048;2023-07-29T06:30:00;1007.0;;;19.2;81.4
72226;BME280;60130;52.250;5.048;2023-07-29T06:35:00;1007.0;;;19.2;81.3
72226;BME280;60130;52.250;5.048;2023-07-29T06:40:00;1007.0;;;19.5;80.8
72226;BME280;60130;52.250;5.048;2023-07-29T06:45:00;1007.1;;;19.4;80.9
72226;BME280;60130;52.250;5.048;2023-07-29T06:50:00;1007.1;;;19.5;80.9
72226;BME280;60130;52.250;5.048;2023-07-29T06:55:00;1007.1;;;19.6;81.2
72226;BME280;60130;52.250;5.048;2023-07-29T07:00:00;1007.1;;;19.7;80.6
72226;BME280;60130;52.250;5.048;2023-07-29T07:05:00;1007.1;;;19.9;80.3
72226;BME280;60130;52.250;5.048;2023-07-29T07:10:00;1007.0;;;20.3;79.2
72226;BME280;60130;52.250;5.048;2023-07-29T07:15:00;1007.1;;;20.2;79.3
72226;BME280;60130;52.250;5.048;2023-07-29T07:20:00;1007.1;;;20.7;79.2
72226;BME280;60130;52.250;5.048;2023-07-29T07:25:00;1007.1;;;21.9;74.9
72226;BME280;60130;52.250;5.048;2023-07-29T07:30:00;1007.1;;;22.0;73.7
72226;BME280;60130;52.250;5.048;2023-07-29T07:35:00;1007.1;;;22.5;71.5
72226;BME280;60130;52.250;5.048;2023-07-29T07:40:00;1007.2;;;21.8;73.5
72226;BME280;60130;52.250;5.048;2023-07-29T07:45:00;1007.1;;;21.1;76.0
72226;BME280;60130;52.250;5.048;2023-07-29T07:50:00;1007.2;;;20.9;77.3
72226;BME280;60130;52.250;5.048;2023-07-29T07:55:00;1007.2;;;21.1;77.7
72226;BME280;60130;52.250;5.048;2023-07-29T08:00:00;1007.2;;;21.2;76.2
72226;BME280;60130;52.250;5.048;2023-07-29T08:05:00;1007.2;;;21.8;75.3
72226;BME280;60130;52.250;5.048;2023-07-29T08:10:00;1007.2;;;21.6;74.4
72226;BME280;60130;52.250;5.048;2023-07-29T08:15:00;1007.2;;;21.2;76.9
72226;BME280;60130;52.250;5.048;2023-07-29T08:20:00;1007.1;;;21.0;76.8
72226;BME280;60130;52.250;5.048;2023-07-29T08:25:00;1007.2;;;20.8;76.4
72226;BME280;60130;52.250;5.048;2023-07-29T08:30:00;1007.3;;;20.8;76.0
72226;BME280;60130;52.250;5.048;2023-07-29T08:35:00;1007.2;;;20.8;74.7
72226;BME280;60130;52.250;5.048;2023-07-29T08:40:00;1007.3;;;21.0;74.1
72226;BME280;60130;52.250;5.048;2023-07-29T08:45:06;1007.3;;;21.3;73.7
72226;BME280;60130;52.250;5.048;2023-07-29T08:50:02;1007.3;;;21.7;71.4
72226;BME280;60130;52.250;5.048;2023-07-29T08:55:00;1007.3;;;22.6;68.9
72226;BME280;60130;52.250;5.048;2023-07-29T09:00:00;1007.3;;;22.2;68.3
72226;BME280;60130;52.250;5.048;2023-07-29T09:05:01;1007.3;;;22.0;69.0
72226;BME280;60130;52.250;5.048;2023-07-29T09:10:00;1007.3;;;21.7;68.2
72226;BME280;60130;52.250;5.048;2023-07-29T09:15:00;1007.4;;;21.6;68.9
72226;BME280;60130;52.250;5.048;2023-07-29T09:20:00;1007.4;;;21.7;70.5
72226;BME280;60130;52.250;5.048;2023-07-29T09:25:00;1007.4;;;22.5;68.1
72226;BME280;60130;52.250;5.048;2023-07-29T09:30:00;1007.4;;;22.8;66.2
72226;BME280;60130;52.250;5.048;2023-07-29T09:35:00;1007.3;;;23.0;64.2
72226;BME280;60130;52.250;5.048;2023-07-29T09:40:00;1007.4;;;22.8;64.2
72226;BME280;60130;52.250;5.048;2023-07-29T09:45:00;1007.4;;;22.6;64.7
72226;BME280;60130;52.250;5.048;2023-07-29T09:50:00;1007.4;;;23.1;65.4
72226;BME280;60130;52.250;5.048;2023-07-29T09:55:00;1007.3;;;23.3;63.7
72226;BME280;60130;52.250;5.048;2023-07-29T10:00:00;1007.3;;;23.3;64.4
72226;BME280;60130;52.250;5.048;2023-07-29T10:05:01;1007.4;;;22.7;64.4
72226;BME280;60130;52.250;5.048;2023-07-29T10:10:01;1007.5;;;22.4;67.3
72226;BME280;60130;52.250;5.048;2023-07-29T10:15:03;1007.5;;;22.2;68.8
72226;BME280;60130;52.250;5.048;2023-07-29T10:20:00;1007.5;;;21.7;71.8
72226;BME280;60130;52.250;5.048;2023-07-29T10:25:03;1007.5;;;22.3;69.9
72226;BME280;60130;52.250;5.048;2023-07-29T10:30:00;1007.5;;;22.7;68.8
72226;BME280;60130;52.250;5.048;2023-07-29T10:35:00;1007.5;;;22.6;68.1
72226;BME280;60130;52.250;5.048;2023-07-29T10:40:00;1007.5;;;22.3;69.2
72226;BME280;60130;52.250;5.048;2023-07-29T10:45:00;1007.5;;;22.2;70.5
72226;BME280;60130;52.250;5.048;2023-07-29T10:50:00;1007.6;;;21.8;71.6
72226;BME280;60130;52.250;5.048;2023-07-29T10:55:01;1007.5;;;21.8;71.2
72226;BME280;60130;52.250;5.048;2023-07-29T11:00:01;1007.5;;;21.7;71.8
72226;BME280;60130;52.250;5.048;2023-07-29T11:05:05;1007.6;;;21.4;75.3
72226;BME280;60130;52.250;5.048;2023-07-29T11:10:01;1007.6;;;21.4;76.0
72226;BME280;60130;52.250;5.048;2023-07-29T11:15:02;1007.6;;;21.1;76.2
72226;BME280;60130;52.250;5.048;2023-07-29T11:20:01;1007.6;;;21.4;73.9
72226;BME280;60130;52.250;5.048;2023-07-29T11:25:00;1007.6;;;21.7;73.0
72226;BME280;60130;52.250;5.048;2023-07-29T11:30:02;1007.6;;;22.1;71.9
72226;BME280;60130;52.250;5.048;2023-07-29T11:35:02;1007.6;;;22.3;71.0
72226;BME280;60130;52.250;5.048;2023-07-29T11:40:00;1007.6;;;22.0;74.3
72226;BME280;60130;52.250;5.048;2023-07-29T11:45:00;1007.6;;;22.9;72.5
72226;BME280;60130;52.250;5.048;2023-07-29T11:50:00;1007.5;;;23.8;70.1
72226;BME280;60130;52.250;5.048;2023-07-29T11:55:01;1007.5;;;23.9;68.1
72226;BME280;60130;52.250;5.048;2023-07-29T12:00:01;1007.5;;;24.1;68.8
72226;BME280;60130;52.250;5.048;2023-07-29T12:05:00;1007.6;;;24.0;67.6
72226;BME280;60130;52.250;5.048;2023-07-29T12:10:01;1007.5;;;23.9;66.2
72226;BME280;60130;52.250;5.048;2023-07-29T12:15:00;1007.6;;;23.0;68.4
72226;BME280;60130;52.250;5.048;2023-07-29T12:20:00;1007.5;;;22.7;68.9
72226;BME280;60130;52.250;5.048;2023-07-29T12:25:00;1007.5;;;23.3;69.1
72226;BME280;60130;52.250;5.048;2023-07-29T12:30:01;1007.5;;;23.8;67.4
72226;BME280;60130;52.250;5.048;2023-07-29T12:35:00;1007.4;;;24.6;66.8
72226;BME280;60130;52.250;5.048;2023-07-29T12:40:00;1007.3;;;23.7;66.1
72226;BME280;60130;52.250;5.048;2023-07-29T12:45:00;1007.4;;;23.6;66.1
72226;BME280;60130;52.250;5.048;2023-07-29T12:50:00;1007.3;;;23.3;65.5
72226;BME280;60130;52.250;5.048;2023-07-29T12:55:00;1007.4;;;23.3;68.0
72226;BME280;60130;52.250;5.048;2023-07-29T13:00:00;1007.4;;;23.2;65.1
72226;BME280;60130;52.250;5.048;2023-07-29T13:05:00;1007.5;;;23.7;65.9
72226;BME280;60130;52.250;5.048;2023-07-29T13:10:00;1007.5;;;23.6;66.5
72226;BME280;60130;52.250;5.048;2023-07-29T13:15:00;1007.5;;;23.9;66.5
72226;BME280;60130;52.250;5.048;2023-07-29T13:20:00;1007.5;;;23.4;66.2
72226;BME280;60130;52.250;5.048;2023-07-29T13:25:00;1007.5;;;23.3;66.8
72226;BME280;60130;52.250;5.048;2023-07-29T13:30:00;1007.5;;;23.9;65.7
72226;BME280;60130;52.250;5.048;2023-07-29T13:35:00;1007.5;;;24.4;64.5
72226;BME280;60130;52.250;5.048;2023-07-29T13:40:00;1007.4;;;25.2;61.5
72226;BME280;60130;52.250;5.048;2023-07-29T13:45:00;1007.3;;;25.4;60.4
72226;BME280;60130;52.250;5.048;2023-07-29T13:50:00;1007.5;;;25.4;60.3
72226;BME280;60130;52.250;5.048;2023-07-29T13:55:00;1007.4;;;25.4;59.7
72226;BME280;60130;52.250;5.048;2023-07-29T14:00:00;1007.4;;;25.2;57.9
72226;BME280;60130;52.250;5.048;2023-07-29T14:05:00;1007.5;;;25.4;58.9
72226;BME280;60130;52.250;5.048;2023-07-29T14:10:00;1007.4;;;24.9;60.3
72226;BME280;60130;52.250;5.048;2023-07-29T14:15:00;1007.5;;;24.7;60.3
72226;BME280;60130;52.250;5.048;2023-07-29T14:20:00;1007.6;;;24.3;60.5
72226;BME280;60130;52.250;5.048;2023-07-29T14:25:00;1007.5;;;24.6;61.0
72226;BME280;60130;52.250;5.048;2023-07-29T14:30:00;1007.4;;;24.9;57.8
72226;BME280;60130;52.250;5.048;2023-07-29T14:35:00;1007.4;;;24.3;58.7
72226;BME280;60130;52.250;5.048;2023-07-29T14:40:00;1007.4;;;24.4;58.0
72226;BME280;60130;52.250;5.048;2023-07-29T14:45:00;1007.4;;;24.6;58.5
72226;BME280;60130;52.250;5.048;2023-07-29T14:50:00;1007.4;;;24.6;58.1
72226;BME280;60130;52.250;5.048;2023-07-29T14:55:00;1007.4;;;25.3;57.0
72226;BME280;60130;52.250;5.048;2023-07-29T15:00:00;1007.3;;;24.7;55.8
72226;BME280;60130;52.250;5.048;2023-07-29T15:05:00;1007.4;;;24.3;55.9
72226;BME280;60130;52.250;5.048;2023-07-29T15:10:00;1007.4;;;24.4;55.5
72226;BME280;60130;52.250;5.048;2023-07-29T15:15:00;1007.5;;;24.8;57.3
72226;BME280;60130;52.250;5.048;2023-07-29T15:20:01;1007.3;;;24.9;55.7
72226;BME280;60130;52.250;5.048;2023-07-29T15:25:00;1007.4;;;24.6;55.7
72226;BME280;60130;52.250;5.048;2023-07-29T15:30:00;1007.4;;;24.5;56.1
72226;BME280;60130;52.250;5.048;2023-07-29T15:35:00;1007.2;;;24.9;55.2
72226;BME280;60130;52.250;5.048;2023-07-29T15:40:00;1007.3;;;24.9;55.9
72226;BME280;60130;52.250;5.048;2023-07-29T15:45:00;1007.3;;;24.2;57.7
72226;BME280;60130;52.250;5.048;2023-07-29T15:50:00;1007.3;;;24.1;57.7
72226;BME280;60130;52.250;5.048;2023-07-29T15:55:00;1007.3;;;24.1;59.0
72226;BME280;60130;52.250;5.048;2023-07-29T16:00:00;1007.2;;;24.2;58.3
72226;BME280;60130;52.250;5.048;2023-07-29T16:05:00;1007.2;;;24.1;59.4
72226;BME280;60130;52.250;5.048;2023-07-29T16:10:00;1007.3;;;24.4;58.9
72226;BME280;60130;52.250;5.048;2023-07-29T16:15:00;1007.3;;;23.9;60.3
72226;BME280;60130;52.250;5.048;2023-07-29T16:20:02;1007.3;;;24.3;59.8
72226;BME280;60130;52.250;5.048;2023-07-29T16:25:00;1007.2;;;24.2;57.2
72226;BME280;60130;52.250;5.048;2023-07-29T16:30:01;1007.3;;;24.2;59.4
72226;BME280;60130;52.250;5.048;2023-07-29T16:35:00;1007.3;;;24.0;55.8
72226;BME280;60130;52.250;5.048;2023-07-29T16:40:00;1007.3;;;23.8;55.9
72226;BME280;60130;52.250;5.048;2023-07-29T16:45:00;1007.2;;;23.6;55.0
72226;BME280;60130;52.250;5.048;2023-07-29T16:50:00;1007.3;;;23.5;53.1
72226;BME280;60130;52.250;5.048;2023-07-29T16:55:00;1007.3;;;23.5;52.2
72226;BME280;60130;52.250;5.048;2023-07-29T17:00:00;1007.4;;;23.6;51.2
72226;BME280;60130;52.250;5.048;2023-07-29T17:05:00;1007.3;;;23.6;51.7
72226;BME280;60130;52.250;5.048;2023-07-29T17:10:00;1007.4;;;23.8;52.2
72226;BME280;60130;52.250;5.048;2023-07-29T17:15:00;1007.3;;;23.8;52.2
72226;BME280;60130;52.250;5.048;2023-07-29T17:20:00;1007.4;;;23.5;53.9
72226;BME280;60130;52.250;5.048;2023-07-29T17:25:00;1007.4;;;23.6;52.9
72226;BME280;60130;52.250;5.048;2023-07-29T17:30:00;1007.6;;;23.6;53.7
72226;BME280;60130;52.250;5.048;2023-07-29T17:35:00;1007.6;;;23.9;53.8
72226;BME280;60130;52.250;5.048;2023-07-29T17:40:00;1007.6;;;23.9;52.7
72226;BME280;60130;52.250;5.048;2023-07-29T17:45:00;1007.6;;;23.8;52.4
72226;BME280;60130;52.250;5.048;2023-07-29T17:50:00;1007.6;;;23.8;50.4
72226;BME280;60130;52.250;5.048;2023-07-29T17:55:00;1007.5;;;23.8;51.0
72226;BME280;60130;52.250;5.048;2023-07-29T18:00:00;1007.5;;;23.8;50.6
72226;BME280;60130;52.250;5.048;2023-07-29T18:05:00;1007.6;;;24.0;50.2
72226;BME280;60130;52.250;5.048;2023-07-29T18:10:00;1007.6;;;23.9;50.5
72226;BME280;60130;52.250;5.048;2023-07-29T18:15:00;1007.7;;;22.9;53.4
72226;BME280;60130;52.250;5.048;2023-07-29T18:20:00;1007.8;;;23.0;54.0
72226;BME280;60130;52.250;5.048;2023-07-29T18:25:00;1007.8;;;23.3;54.5
72226;BME280;60130;52.250;5.048;2023-07-29T18:30:00;1007.8;;;23.2;55.4
72226;BME280;60130;52.250;5.048;2023-07-29T18:35:00;1007.8;;;22.8;56.5
72226;BME280;60130;52.250;5.048;2023-07-29T18:40:00;1007.9;;;22.6;57.6
72226;BME280;60130;52.250;5.048;2023-07-29T18:45:00;1007.9;;;22.5;58.3
72226;BME280;60130;52.250;5.048;2023-07-29T18:50:00;1007.9;;;22.2;59.4
72226;BME280;60130;52.250;5.048;2023-07-29T18:55:00;1007.9;;;22.0;60.0
72226;BME280;60130;52.250;5.048;2023-07-29T19:00:00;1007.9;;;21.9;61.1
72226;BME280;60130;52.250;5.048;2023-07-29T19:05:00;1008.0;;;21.5;62.2
72226;BME280;60130;52.250;5.048;2023-07-29T19:10:00;1008.0;;;21.1;64.2
72226;BME280;60130;52.250;5.048;2023-07-29T19:15:00;1008.0;;;20.8;65.6
72226;BME280;60130;52.250;5.048;2023-07-29T19:20:00;1008.1;;;20.6;66.9
72226;BME280;60130;52.250;5.048;2023-07-29T19:25:00;1008.1;;;20.2;67.7
72226;BME280;60130;52.250;5.048;2023-07-29T19:30:00;1008.2;;;20.0;68.9
72226;BME280;60130;52.250;5.048;2023-07-29T19:35:00;1008.2;;;19.7;69.5
72226;BME280;60130;52.250;5.048;2023-07-29T19:40:00;1008.2;;;19.6;70.6
72226;BME280;60130;52.250;5.048;2023-07-29T19:45:00;1008.3;;;19.4;70.9
72226;BME280;60130;52.250;5.048;2023-07-29T19:50:00;1008.3;;;19.4;71.3
72226;BME280;60130;52.250;5.048;2023-07-29T19:55:00;1008.3;;;19.3;73.8
72226;BME280;60130;52.250;5.048;2023-07-29T20:00:00;1008.4;;;19.2;72.4
72226;BME280;60130;52.250;5.048;2023-07-29T20:05:00;1008.5;;;19.0;73.3
72226;BME280;60130;52.250;5.048;2023-07-29T20:10:00;1008.5;;;18.9;74.2
72226;BME280;60130;52.250;5.048;2023-07-29T20:15:00;1008.5;;;18.8;75.0
72226;BME280;60130;52.250;5.048;2023-07-29T20:20:00;1008.5;;;18.6;75.4
72226;BME280;60130;52.250;5.048;2023-07-29T20:25:00;1008.5;;;18.6;76.1
72226;BME280;60130;52.250;5.048;2023-07-29T20:30:00;1008.5;;;18.6;76.1
72226;BME280;60130;52.250;5.048;2023-07-29T20:35:00;1008.6;;;18.5;76.6
72226;BME280;60130;52.250;5.048;2023-07-29T20:40:00;1008.5;;;18.4;76.9
72226;BME280;60130;52.250;5.048;2023-07-29T20:45:01;1008.6;;;18.4;77.0
72226;BME280;60130;52.250;5.048;2023-07-29T20:50:00;1008.6;;;18.4;77.1
72226;BME280;60130;52.250;5.048;2023-07-29T20:55:00;1008.7;;;18.4;77.0
72226;BME280;60130;52.250;5.048;2023-07-29T21:00:00;1008.7;;;18.3;77.3
72226;BME280;60130;52.250;5.048;2023-07-29T21:05:00;1008.6;;;18.2;77.5
72226;BME280;60130;52.250;5.048;2023-07-29T21:10:00;1008.6;;;18.3;77.6
72226;BME280;60130;52.250;5.048;2023-07-29T21:15:00;1008.7;;;18.4;77.5
72226;BME280;60130;52.250;5.048;2023-07-29T21:20:00;1008.7;;;18.3;77.4
72226;BME280;60130;52.250;5.048;2023-07-29T21:25:00;1008.7;;;18.2;78.0
72226;BME280;60130;52.250;5.048;2023-07-29T21:30:00;1008.7;;;18.2;77.7
72226;BME280;60130;52.250;5.048;2023-07-29T21:35:00;1008.6;;;18.2;77.8
72226;BME280;60130;52.250;5.048;2023-07-29T21:40:00;1008.7;;;18.2;77.6
72226;BME280;60130;52.250;5.048;2023-07-29T21:45:00;1008.6;;;18.1;77.7
72226;BME280;60130;52.250;5.048;2023-07-29T21:50:00;1008.6;;;18.0;77.8
72226;BME280;60130;52.250;5.048;2023-07-29T21:55:00;1008.5;;;18.0;77.6
72226;BME280;60130;52.250;5.048;2023-07-29T22:00:00;1008.5;;;18.0;77.5
72226;BME280;60130;52.250;5.048;2023-07-29T22:05:00;1008.6;;;17.9;77.5
72226;BME280;60130;52.250;5.048;2023-07-29T22:10:00;1008.6;;;17.8;77.6
72226;BME280;60130;52.250;5.048;2023-07-29T22:15:00;1008.5;;;17.8;77.8
72226;BME280;60130;52.250;5.048;2023-07-29T22:20:00;1008.6;;;17.8;77.6
72226;BME280;60130;52.250;5.048;2023-07-29T22:25:00;1008.6;;;17.7;78.3
72226;BME280;60130;52.250;5.048;2023-07-29T22:30:00;1008.6;;;17.7;77.7
72226;BME280;60130;52.250;5.048;2023-07-29T22:35:00;1008.5;;;17.6;78.0
72226;BME280;60130;52.250;5.048;2023-07-29T22:40:00;1008.5;;;17.5;78.2
72226;BME280;60130;52.250;5.048;2023-07-29T22:45:00;1008.5;;;17.4;78.7
72226;BME280;60130;52.250;5.048;2023-07-29T22:50:00;1008.6;;;17.3;79.0
72226;BME280;60130;52.250;5.048;2023-07-29T22:55:00;1008.6;;;17.3;79.1
72226;BME280;60130;52.250;5.048;2023-07-29T23:00:00;1008.6;;;17.2;79.4
72226;BME280;60130;52.250;5.048;2023-07-29T23:05:00;1008.6;;;17.2;79.4
72226;BME280;60130;52.250;5.048;2023-07-29T23:10:00;1008.7;;;17.2;79.8
72226;BME280;60130;52.250;5.048;2023-07-29T23:15:00;1008.8;;;17.1;80.2
72226;BME280;60130;52.250;5.048;2023-07-29T23:20:00;1008.8;;;17.1;80.3
72226;BME280;60130;52.250;5.048;2023-07-29T23:25:00;1008.8;;;17.0;80.7
72226;BME280;60130;52.250;5.048;2023-07-29T23:30:00;1008.8;;;17.1;80.7
72226;BME280;60130;52.250;5.048;2023-07-29T23:35:00;1008.8;;;17.1;80.7
72226;BME280;60130;52.250;5.048;2023-07-29T23:40:00;1008.9;;;17.1;80.9
72226;BME280;60130;52.250;5.048;2023-07-29T23:45:00;1008.9;;;17.0;81.4
72226;BME280;60130;52.250;5.048;2023-07-29T23:50:00;1008.8;;;17.1;81.4
72226;BME280;60130;52.250;5.048;2023-07-29T23:55:01;1008.8;;;17.1;81.5
